Time;durP1;ratioP1;P1;durP2;ratioP2;P2;SDS_P1;SDS_P2;PMS_P1;PMS_P2;Temp;Humidity;BMP_temperature;BMP_pressure;BME280_temperature;BME280_humidity;BME280_pressure;Samples;Min_cycle;Max_cycle;Signal;HPM_P1;HPM_P2
2023/10/19 00:03:50;;;;;;;10.53;6.40;;;;;;;-145.68;62.00;73307.91;10474153;28;20184;-73
2023/10/19 00:08:52;;;;;;;13.83;6.87;;;;;;;-145.68;61.37;73269.94;10473063;28;20184;-73
2023/10/19 00:13:57;;;;;;;8.40;5.33;;;;;;;-145.68;61.10;73251.94;10474915;28;20207;-73
2023/10/19 00:18:59;;;;;;;10.13;6.37;;;;;;;-145.68;60.15;73249.94;10474566;28;20188;-72
2023/10/19 00:24:04;;;;;;;12.87;6.47;;;;;;;-145.68;60.71;73251.94;10466744;28;20254;-73
2023/10/19 00:29:21;;;;;;;10.40;6.73;;;;;;;-145.68;61.35;73275.94;10478750;28;20188;-73
2023/10/19 00:34:28;;;;;;;9.17;6.07;;;;;;;-145.68;61.39;73255.94;10461605;28;20667;-73
2023/10/19 00:39:40;;;;;;;9.27;6.17;;;;;;;-145.68;61.78;73243.97;10472598;28;20219;-72
2023/10/19 00:44:42;;;;;;;10.47;6.40;;;;;;;-145.68;61.89;73227.97;10462254;28;20194;-74
2023/10/19 00:49:44;;;;;;;13.27;5.83;;;;;;;-145.68;61.80;73211.97;10475064;28;20237;-73
2023/10/19 00:54:55;;;;;;;7.87;6.00;;;;;;;-145.68;61.99;73205.97;10474252;28;20240;-73
2023/10/19 01:00:11;;;;;;;10.70;5.97;;;;;;;-145.68;61.48;73207.97;10472832;28;20224;-73
2023/10/19 01:05:14;;;;;;;10.30;6.87;;;;;;;-145.68;61.52;73201.97;10470900;28;20180;-73
2023/10/19 01:10:20;;;;;;;15.50;7.30;;;;;;;-145.68;61.87;73205.97;10474051;28;20614;-73
2023/10/19 01:26:07;;;;;;;12.27;6.73;;;;;;;-145.68;61.54;73178.00;10475567;28;20187;-72
2023/10/19 01:31:16;;;;;;;9.67;6.50;;;;;;;-145.68;61.30;73174.00;10472432;28;20553;-73
2023/10/19 01:36:24;;;;;;;7.37;5.00;;;;;;;-145.68;61.54;73158.00;10472929;28;20217;-72
2023/10/19 01:41:26;;;;;;;7.27;5.80;;;;;;;-145.68;61.64;73160.00;10471257;28;20242;-72
2023/10/19 01:46:31;;;;;;;11.23;7.50;;;;;;;-145.68;62.07;73164.00;10472100;28;20639;-73
2023/10/19 01:51:38;;;;;;;10.40;8.10;;;;;;;-145.68;62.23;73178.00;10472311;28;20683;-73
2023/10/19 01:56:41;;;;;;;12.67;8.57;;;;;;;-145.68;62.79;73184.00;10467949;28;20219;-72
2023/10/19 02:01:45;;;;;;;14.30;7.20;;;;;;;-145.68;63.25;73182.00;10472320;28;20197;-73
2023/10/19 02:06:50;;;;;;;15.83;9.13;;;;;;;-145.68;64.40;73186.00;10473438;28;20192;-73
2023/10/19 02:11:58;;;;;;;14.50;9.60;;;;;;;-145.68;66.57;73192.00;10472596;28;20244;-72
2023/10/19 02:17:00;;;;;;;13.03;8.17;;;;;;;-145.68;67.68;73184.00;10466532;28;20240;-74
2023/10/19 02:22:04;;;;;;;11.87;8.20;;;;;;;-145.68;68.35;73200.00;10471737;28;20228;-72
2023/10/19 02:27:05;;;;;;;11.03;6.70;;;;;;;-145.68;69.80;73194.00;10471174;28;20180;-73
2023/10/19 02:32:06;;;;;;;16.43;10.03;;;;;;;-145.68;71.06;73211.97;10473722;28;20196;-72
2023/10/19 02:37:07;;;;;;;11.20;7.97;;;;;;;-145.68;71.26;73186.00;10473800;28;20270;-72
2023/10/19 02:42:08;;;;;;;16.83;10.30;;;;;;;-145.68;71.57;73166.00;10470636;28;20248;-73
2023/10/19 02:47:08;;;;;;;8.60;5.97;;;;;;;-145.68;71.46;73158.00;10473153;28;20188;-72
2023/10/19 02:52:12;;;;;;;14.50;9.00;;;;;;;-145.68;75.94;73192.00;10471648;28;20188;-72
2023/10/19 02:57:13;;;;;;;16.30;8.67;;;;;;;-145.68;89.36;73283.94;10473713;28;20230;-73
2023/10/19 03:07:15;;;;;;;16.30;9.33;;;;;;;-145.68;100.00;73283.94;10485538;28;20515;-74
2023/10/19 03:12:16;;;;;;;16.90;10.97;;;;;;;-145.68;100.00;73279.94;10481887;28;20191;-74
2023/10/19 03:17:18;;;;;;;17.37;9.30;;;;;;;-145.68;100.00;73263.94;10478493;28;21054;-75
2023/10/19 03:22:19;;;;;;;20.53;12.70;;;;;;;-145.68;100.00;73269.94;10489738;28;20230;-74
2023/10/19 03:27:22;;;;;;;20.63;12.77;;;;;;;-145.68;100.00;73301.91;10489639;28;20191;-74
2023/10/19 03:32:27;;;;;;;24.67;16.40;;;;;;;-145.68;100.00;73319.91;10481838;28;20202;-74
2023/10/19 03:37:31;;;;;;;18.63;11.17;;;;;;;-145.68;100.00;73313.91;10468699;28;20203;-74
2023/10/19 03:42:32;;;;;;;22.57;14.63;;;;;;;-145.68;100.00;73323.91;10468201;28;20964;-74
2023/10/19 03:47:36;;;;;;;17.83;13.83;;;;;;;-145.68;100.00;73333.91;10468311;28;20199;-74
2023/10/19 03:52:37;;;;;;;21.53;14.07;;;;;;;-145.68;100.00;73319.91;10464456;28;20188;-75
2023/10/19 03:57:46;;;;;;;26.37;18.87;;;;;;;-145.68;100.00;73331.91;10468456;28;20207;-75
2023/10/19 04:02:46;;;;;;;14.07;9.60;;;;;;;-145.68;100.00;73329.91;10481203;28;20547;-76
2023/10/19 04:07:49;;;;;;;22.30;15.07;;;;;;;-145.68;100.00;73329.91;10469456;28;20191;-75
2023/10/19 04:12:50;;;;;;;26.70;18.00;;;;;;;-145.68;100.00;73335.91;10470244;28;20214;-74
2023/10/19 04:17:52;;;;;;;20.83;15.57;;;;;;;-145.68;100.00;73331.91;10470248;28;20215;-74
2023/10/19 04:22:53;;;;;;;18.63;13.70;;;;;;;-145.68;100.00;73329.91;10467696;28;20638;-74
2023/10/19 04:27:53;;;;;;;16.93;12.80;;;;;;;-145.68;100.00;73323.91;10472501;28;20202;-74
2023/10/19 04:32:57;;;;;;;22.43;15.67;;;;;;;-145.68;100.00;73317.91;10469989;28;20195;-73
2023/10/19 04:37:58;;;;;;;15.50;10.93;;;;;;;-145.68;100.00;73307.91;10468037;28;20679;-72
2023/10/19 04:42:59;;;;;;;16.90;10.57;;;;;;;-145.68;100.00;73309.91;10467376;28;20198;-72
2023/10/19 04:48:02;;;;;;;20.57;12.87;;;;;;;-145.68;100.00;73291.94;10471233;28;20954;-73
2023/10/19 04:53:04;;;;;;;19.83;13.60;;;;;;;-145.68;100.00;73295.94;10466450;28;20223;-72
2023/10/19 04:58:05;;;;;;;15.50;11.23;;;;;;;-145.68;100.00;73301.91;10471614;28;20194;-73
2023/10/19 05:03:06;;;;;;;15.67;10.60;;;;;;;-145.68;100.00;73307.91;10470411;28;20187;-72
2023/10/19 05:08:06;;;;;;;18.93;12.60;;;;;;;-145.68;100.00;73307.91;10463192;28;20202;-73
2023/10/19 05:13:07;;;;;;;17.93;13.93;;;;;;;-145.68;100.00;73301.91;10466059;28;20668;-72
2023/10/19 05:18:07;;;;;;;16.50;10.90;;;;;;;-145.68;100.00;73297.91;10470276;28;20192;-72
2023/10/19 05:23:10;;;;;;;21.77;14.83;;;;;;;-145.68;100.00;73279.94;10465144;28;20801;-73
2023/10/19 05:28:11;;;;;;;20.60;13.57;;;;;;;-145.68;100.00;73265.94;10465791;28;20215;-72
2023/10/19 05:33:11;;;;;;;17.33;12.83;;;;;;;-145.68;100.00;73253.94;10464891;28;20299;-73
2023/10/19 05:38:12;;;;;;;17.23;11.67;;;;;;;-145.68;100.00;73243.97;10469411;28;20186;-73
2023/10/19 05:43:12;;;;;;;18.83;13.17;;;;;;;-145.68;100.00;73247.97;10470240;28;20183;-73
2023/10/19 05:48:12;;;;;;;20.03;16.27;;;;;;;-145.68;100.00;73247.97;10464904;28;20747;-73
2023/10/19 05:53:18;;;;;;;22.77;18.47;;;;;;;-145.68;100.00;73261.94;10465111;28;20302;-72
2023/10/19 05:58:18;;;;;;;26.13;17.67;;;;;;;-145.68;100.00;73255.94;10465764;28;20262;-72
2023/10/19 06:03:19;;;;;;;22.60;18.30;;;;;;;-145.68;100.00;73263.94;10459434;28;20242;-72
2023/10/19 06:08:19;;;;;;;25.67;17.87;;;;;;;-145.68;100.00;73275.94;10464511;28;20191;-73
2023/10/19 06:13:21;;;;;;;22.90;17.20;;;;;;;-145.68;100.00;73277.94;10468517;28;20966;-74
2023/10/19 06:18:22;;;;;;;24.93;16.23;;;;;;;-145.68;100.00;73283.94;10468609;28;20237;-73
2023/10/19 06:23:22;;;;;;;25.73;18.73;;;;;;;-145.68;100.00;73275.94;10469368;28;20569;-73
2023/10/19 06:28:23;;;;;;;21.40;15.77;;;;;;;-145.68;100.00;73263.94;10463875;28;20681;-71
2023/10/19 06:33:23;;;;;;;24.53;16.53;;;;;;;-145.68;100.00;73257.94;10467876;28;20218;-72
2023/10/19 06:38:24;;;;;;;19.13;14.47;;;;;;;-145.68;100.00;73247.97;10472285;28;20726;-73
2023/10/19 06:43:28;;;;;;;19.27;12.93;;;;;;;-145.68;100.00;73233.97;10475822;28;20187;-73
2023/10/19 06:48:28;;;;;;;16.60;12.00;;;;;;;-145.68;100.00;73243.97;10476056;28;20217;-72
2023/10/19 06:53:29;;;;;;;18.53;12.97;;;;;;;-145.68;100.00;73241.97;10471519;28;20206;-72
2023/10/19 06:58:29;;;;;;;18.63;12.50;;;;;;;-145.68;100.00;73233.97;10471869;28;20209;-72
2023/10/19 07:03:30;;;;;;;22.00;16.23;;;;;;;-145.68;100.00;73223.97;10464488;28;20237;-73
2023/10/19 07:08:30;;;;;;;20.03;14.50;;;;;;;-145.68;100.00;73215.97;10466226;28;20630;-73
2023/10/19 07:13:32;;;;;;;16.53;12.13;;;;;;;-145.68;100.00;73196.00;10461415;28;20261;-73
2023/10/19 07:18:33;;;;;;;17.70;13.27;;;;;;;-145.68;100.00;73207.97;10460089;28;20671;-73
2023/10/19 07:23:33;;;;;;;18.23;12.27;;;;;;;-145.68;100.00;73217.97;10466848;28;20231;-73
2023/10/19 07:28:34;;;;;;;20.23;16.13;;;;;;;-145.68;100.00;73239.97;10469029;28;20187;-72
2023/10/19 07:33:38;;;;;;;17.03;11.87;;;;;;;-145.68;100.00;73243.97;10463201;28;20208;-73
2023/10/19 07:38:38;;;;;;;22.00;15.30;;;;;;;-145.68;100.00;73243.97;10468125;28;20179;-73
2023/10/19 07:43:39;;;;;;;17.47;12.57;;;;;;;-145.68;100.00;73277.94;10451545;28;20190;-73
2023/10/19 07:48:39;;;;;;;12.40;9.63;;;;;;;-145.68;100.00;73255.94;10466543;28;20703;-73
2023/10/19 07:53:40;;;;;;;15.53;10.63;;;;;;;-145.68;100.00;73231.97;10455238;28;20365;-74
2023/10/19 07:58:41;;;;;;;15.33;12.30;;;;;;;-145.68;100.00;73217.97;10466774;28;20187;-74
2023/10/19 08:03:42;;;;;;;13.90;10.40;;;;;;;-145.68;100.00;73225.97;10468882;28;20190;-73
2023/10/19 08:08:42;;;;;;;16.73;9.80;;;;;;;-145.68;100.00;73225.97;10467060;28;20192;-74
2023/10/19 08:13:43;;;;;;;13.97;10.97;;;;;;;-145.68;100.00;73219.97;10465852;28;20356;-75
2023/10/19 08:18:44;;;;;;;9.40;7.17;;;;;;;-145.68;100.00;73213.97;10476258;28;20195;-74
2023/10/19 08:23:45;;;;;;;12.97;9.73;;;;;;;-145.68;100.00;73192.00;10481125;28;20754;-74
2023/10/19 08:28:45;;;;;;;12.47;10.37;;;;;;;-145.68;100.00;73172.00;10472506;28;20223;-74
2023/10/19 08:33:47;;;;;;;12.67;10.30;;;;;;;-145.68;100.00;73146.03;10469342;28;20230;-74
2023/10/19 08:38:48;;;;;;;14.00;10.53;;;;;;;-145.68;100.00;73128.03;10465934;28;20495;-73
2023/10/19 08:43:49;;;;;;;12.67;9.47;;;;;;;-145.68;100.00;73106.06;10474063;28;20188;-74
2023/10/19 08:48:49;;;;;;;7.30;5.30;;;;;;;-145.68;100.00;73092.06;10475521;28;20212;-73
2023/10/19 08:53:52;;;;;;;8.13;5.90;;;;;;;-145.68;100.00;73048.09;10467152;28;20215;-74
2023/10/19 08:58:53;;;;;;;10.23;7.43;;;;;;;-145.68;100.00;73038.09;10460000;28;20188;-74
2023/10/19 09:03:53;;;;;;;7.57;5.60;;;;;;;-145.68;100.00;73014.13;10460848;28;20180;-73
2023/10/19 09:09:00;;;;;;;9.73;7.37;;;;;;;-145.68;100.00;73000.13;10453818;28;20195;-73
2023/10/19 09:14:01;;;;;;;8.17;6.80;;;;;;;-145.68;100.00;72994.13;10471341;28;20284;-74
2023/10/19 09:19:01;;;;;;;10.10;8.30;;;;;;;-145.68;100.00;73004.13;10469370;28;20232;-74
2023/10/19 09:24:02;;;;;;;10.73;8.70;;;;;;;-145.68;100.00;72980.13;10462875;28;20292;-73
2023/10/19 09:29:03;;;;;;;10.80;7.80;;;;;;;-145.68;100.00;72960.16;10463172;28;20191;-73
2023/10/19 09:34:05;;;;;;;11.30;9.10;;;;;;;-145.68;100.00;72952.16;10450488;28;20760;-73
2023/10/19 09:39:12;;;;;;;10.90;8.23;;;;;;;-145.68;100.00;72934.19;10431779;28;20196;-73
2023/10/19 09:44:15;;;;;;;10.87;8.67;;;;;;;-145.68;100.00;72918.19;10448649;28;20184;-73
2023/10/19 09:49:15;;;;;;;13.43;9.03;;;;;;;-145.68;100.00;72910.19;10460291;28;20683;-73
2023/10/19 09:54:37;;;;;;;13.03;10.00;;;;;;;-145.68;100.00;72910.19;10459761;28;20222;-73
2023/10/19 09:59:40;;;;;;;12.00;9.67;;;;;;;-145.68;100.00;72900.19;10459498;28;20286;-73
2023/10/19 10:04:42;;;;;;;14.67;10.87;;;;;;;-145.68;100.00;72902.19;10459090;28;20953;-73
2023/10/19 10:09:46;;;;;;;11.83;9.43;;;;;;;-145.68;100.00;72880.22;10466842;28;20655;-73
2023/10/19 10:15:11;;;;;;;15.30;12.10;;;;;;;-145.68;100.00;72862.22;10468599;28;20231;-73
2023/10/19 10:20:14;;;;;;;15.93;12.53;;;;;;;-145.68;100.00;72836.25;10459022;28;20771;-74
2023/10/19 10:25:27;;;;;;;17.00;14.57;;;;;;;-145.68;100.00;72846.25;10468979;28;20200;-73
2023/10/19 10:30:28;;;;;;;16.53;13.57;;;;;;;-145.68;100.00;72824.25;10467146;28;20286;-73
2023/10/19 10:35:40;;;;;;;17.47;13.10;;;;;;;-145.68;100.00;72796.28;10466937;28;20623;-73
2023/10/19 10:40:48;;;;;;;19.27;14.37;;;;;;;-145.68;100.00;72780.28;10462569;28;20196;-73
2023/10/19 10:45:48;;;;;;;17.57;12.10;;;;;;;-145.68;100.00;72746.31;10459504;28;20203;-73
2023/10/19 10:50:49;;;;;;;14.63;13.07;;;;;;;-145.68;100.00;72730.34;10458692;28;20223;-73
2023/10/19 10:55:50;;;;;;;17.70;12.30;;;;;;;-145.68;100.00;72672.38;10463490;28;20216;-74
2023/10/19 11:00:51;;;;;;;14.63;11.97;;;;;;;-145.68;100.00;72638.41;10461783;28;20200;-74
2023/10/19 11:05:51;;;;;;;11.33;10.13;;;;;;;-145.68;100.00;72630.41;10464237;28;20232;-74
2023/10/19 11:10:54;;;;;;;13.37;10.30;;;;;;;-145.68;100.00;72636.41;10453519;28;20599;-74
2023/10/19 11:15:56;;;;;;;10.87;9.40;;;;;;;-145.68;100.00;72588.44;10454983;28;20223;-74
2023/10/19 11:20:59;;;;;;;10.80;7.50;;;;;;;-145.68;100.00;72596.44;10459690;28;20224;-74
2023/10/19 11:26:02;;;;;;;12.87;9.63;;;;;;;-145.68;100.00;72600.44;10466037;28;20734;-74
2023/10/19 11:31:13;;;;;;;12.23;8.67;;;;;;;-145.68;100.00;72552.47;10466501;28;20231;-75
2023/10/19 11:36:14;;;;;;;13.30;10.00;;;;;;;-145.68;100.00;72544.50;10463849;28;20220;-75
2023/10/19 11:41:16;;;;;;;10.33;9.20;;;;;;;-145.68;100.00;72540.50;10450693;28;20291;-75
2023/10/19 11:46:22;;;;;;;10.17;8.53;;;;;;;-145.68;100.00;72528.50;10459051;28;20591;-75
2023/10/19 11:51:23;;;;;;;12.43;8.80;;;;;;;-145.68;100.00;72520.50;10458571;28;20345;-75
2023/10/19 11:56:25;;;;;;;10.40;9.27;;;;;;;-145.68;100.00;72508.50;10460991;28;20674;-75
2023/10/19 12:01:26;;;;;;;11.17;9.00;;;;;;;-145.68;100.00;72494.53;10462114;28;20217;-75
2023/10/19 12:06:27;;;;;;;10.90;8.98;;;;;;;-145.68;100.00;72474.53;10462034;28;20820;-75
2023/10/19 12:11:28;;;;;;;8.52;7.15;;;;;;;-145.68;100.00;72440.56;10462466;28;20198;-75
2023/10/19 12:16:28;;;;;;;9.60;8.60;;;;;;;-145.68;100.00;72480.53;10462613;28;20253;-75
2023/10/19 12:21:30;;;;;;;10.63;8.50;;;;;;;-145.68;100.00;72416.59;10460575;28;20227;-75
2023/10/19 12:26:31;;;;;;;9.88;6.95;;;;;;;-145.68;100.00;72352.66;10461671;28;20190;-75
2023/10/19 12:31:32;;;;;;;10.52;8.35;;;;;;;-145.68;100.00;72280.72;10464726;28;20191;-75
2023/10/19 12:36:35;;;;;;;13.75;11.55;;;;;;;-145.68;95.75;72108.88;10449803;28;20212;-73
2023/10/19 12:41:35;;;;;;;8.05;6.00;;;;;;;-145.68;83.87;72012.97;10455446;28;20195;-73
2023/10/19 12:46:36;;;;;;;9.45;6.88;;;;;;;-145.68;80.97;72016.97;10460090;28;20196;-74
2023/10/19 12:51:38;;;;;;;7.43;5.97;;;;;;;-145.68;79.01;71985.00;10463893;28;20264;-72
2023/10/19 12:56:39;;;;;;;6.85;5.65;;;;;;;-145.68;77.97;71985.00;10458034;28;20219;-73
2023/10/19 13:01:40;;;;;;;6.38;5.47;;;;;;;-145.68;77.01;71967.00;10464345;28;20260;-74
2023/10/19 13:06:40;;;;;;;6.20;5.13;;;;;;;-145.68;78.49;71971.00;10462335;28;20469;-74
2023/10/19 13:11:43;;;;;;;6.05;5.03;;;;;;;-145.68;77.67;71979.00;10459496;28;20248;-74
2023/10/19 13:16:44;;;;;;;6.35;4.70;;;;;;;-145.68;77.34;71967.00;10460829;28;20234;-74
2023/10/19 13:21:44;;;;;;;7.20;4.60;;;;;;;-145.68;77.78;71981.00;10460552;28;20242;-73
2023/10/19 13:33:10;;;;;;;6.00;5.40;;;;;;;-145.68;73.31;71913.06;10456018;28;20278;-74
2023/10/19 13:38:15;;;;;;;6.43;5.80;;;;;;;-145.68;75.40;72014.97;10449125;28;20196;-74
2023/10/19 13:43:18;;;;;;;7.43;5.70;;;;;;;-145.68;77.09;72002.97;10456664;28;20212;-73
2023/10/19 13:48:19;;;;;;;6.43;5.72;;;;;;;-145.68;79.53;72058.94;10459874;28;20211;-73
2023/10/19 13:53:20;;;;;;;6.03;5.20;;;;;;;-145.68;81.19;72040.94;10461166;28;20512;-74
2023/10/19 13:58:21;;;;;;;7.63;5.80;;;;;;;-145.68;85.05;72070.91;10458611;28;20199;-74
2023/10/19 14:03:22;;;;;;;7.72;6.40;;;;;;;-145.68;87.42;72092.91;10455820;28;20196;-74
2023/10/19 14:08:22;;;;;;;6.47;5.43;;;;;;;-145.68;88.68;72080.91;10453805;28;20195;-74
2023/10/19 14:13:22;;;;;;;6.20;5.60;;;;;;;-145.68;90.32;72102.88;10460248;28;20227;-73
2023/10/19 14:18:23;;;;;;;6.50;5.90;;;;;;;-145.68;88.86;72092.91;10467844;28;20191;-73
2023/10/19 14:23:24;;;;;;;6.00;5.35;;;;;;;-145.68;90.74;72082.91;10460773;28;20618;-74
2023/10/19 14:28:24;;;;;;;7.40;6.03;;;;;;;-145.68;89.99;72098.88;10460020;28;20198;-74
2023/10/19 14:33:25;;;;;;;11.40;6.15;;;;;;;-145.68;92.53;72118.88;10458256;28;20236;-73
2023/10/19 14:38:27;;;;;;;8.95;5.97;;;;;;;-145.68;94.92;72132.84;10455228;28;20195;-74
2023/10/19 14:43:29;;;;;;;6.95;6.25;;;;;;;-145.68;97.66;72142.84;10460731;28;20211;-74
2023/10/19 14:48:29;;;;;;;7.93;6.43;;;;;;;-145.68;99.74;72168.81;10461038;28;20265;-73
2023/10/19 14:53:30;;;;;;;6.55;5.93;;;;;;;-145.68;100.00;72140.84;10461157;28;20264;-73
2023/10/19 14:58:31;;;;;;;6.82;6.10;;;;;;;-145.68;100.00;72146.84;10470283;28;20738;-72
2023/10/19 15:03:32;;;;;;;8.73;6.78;;;;;;;-145.68;100.00;72172.81;10466871;28;20213;-74
2023/10/19 15:08:32;;;;;;;11.40;8.07;;;;;;;-145.68;100.00;72218.78;10468736;28;20198;-76
2023/10/19 15:13:33;;;;;;;8.18;6.50;;;;;;;-145.68;100.00;72168.81;10470043;28;20212;-76
2023/10/19 15:18:48;;;;;;;7.20;6.50;;;;;;;-145.68;100.00;72236.75;10469169;28;20187;-76
2023/10/19 15:23:49;;;;;;;7.82;6.70;;;;;;;-145.68;100.00;72256.75;10466049;28;20730;-76
2023/10/19 15:28:50;;;;;;;8.20;6.38;;;;;;;-145.68;100.00;72248.75;10470932;28;20199;-76
2023/10/19 15:33:50;;;;;;;8.73;5.60;;;;;;;-145.68;100.00;72242.75;10469938;28;20219;-76
2023/10/19 15:38:51;;;;;;;7.07;6.38;;;;;;;-145.68;100.00;72282.72;10463911;28;20188;-76
2023/10/19 15:43:51;;;;;;;8.02;6.55;;;;;;;-145.68;100.00;72318.69;10471415;28;20192;-76
2023/10/19 15:48:52;;;;;;;7.45;6.07;;;;;;;-145.68;100.00;72354.66;10474198;28;20212;-76
2023/10/19 15:53:55;;;;;;;7.32;6.05;;;;;;;-145.68;100.00;72372.63;10466452;28;20234;-76
2023/10/19 15:58:56;;;;;;;7.15;6.15;;;;;;;-145.68;100.00;72386.63;10466765;28;20196;-76
2023/10/19 16:03:56;;;;;;;7.68;6.85;;;;;;;-145.68;100.00;72414.59;10463519;28;20188;-74
2023/10/19 16:08:57;;;;;;;7.53;6.72;;;;;;;-145.68;100.00;72440.56;10466913;28;20507;-75
2023/10/19 16:13:57;;;;;;;9.93;7.03;;;;;;;-145.68;100.00;72436.56;10467185;28;20223;-75
2023/10/19 16:18:58;;;;;;;10.48;7.30;;;;;;;-145.68;100.00;72436.56;10463705;28;20192;-75
2023/10/19 16:23:59;;;;;;;13.70;9.68;;;;;;;-145.68;100.00;72432.59;10466044;28;20232;-75
2023/10/19 16:28:59;;;;;;;54.15;30.80;;;;;;;-145.68;100.00;72448.56;10465576;28;20248;-75
2023/10/19 16:33:59;;;;;;;11.07;9.18;;;;;;;-145.68;100.00;72442.56;10465205;28;20211;-75
2023/10/19 16:39:00;;;;;;;9.43;7.32;;;;;;;-145.68;100.00;72438.56;10461682;28;20274;-74
2023/10/19 16:49:47;;;;;;;7.57;6.80;;;;;;;-145.68;100.00;72452.56;10425879;28;20255;-75
2023/10/19 16:54:47;;;;;;;10.43;6.10;;;;;;;-145.68;100.00;72450.56;10462351;28;20767;-75
2023/10/19 16:59:49;;;;;;;9.25;7.10;;;;;;;-145.68;100.00;72464.56;10463377;28;20200;-75
2023/10/19 17:04:51;;;;;;;9.27;7.43;;;;;;;-145.68;100.00;72476.53;10463678;28;20188;-75
2023/10/19 17:09:52;;;;;;;6.70;5.72;;;;;;;-145.68;100.00;72478.53;10449681;28;20650;-75
2023/10/19 17:14:52;;;;;;;6.80;5.60;;;;;;;-145.68;100.00;72480.53;10460519;28;20229;-75
2023/10/19 17:19:53;;;;;;;8.18;6.28;;;;;;;-145.68;100.00;72480.53;10455241;28;20199;-75
2023/10/19 17:24:53;;;;;;;8.05;5.95;;;;;;;-145.68;100.00;72472.53;10458024;28;20714;-75
2023/10/19 17:29:54;;;;;;;8.52;7.22;;;;;;;-145.68;100.00;72476.53;10462973;28;20199;-75
2023/10/19 17:34:54;;;;;;;7.13;6.13;;;;;;;-145.68;100.00;72484.53;10461605;28;20662;-75
2023/10/19 17:39:55;;;;;;;6.72;5.18;;;;;;;-145.68;100.00;72484.53;10461835;28;20227;-75
2023/10/19 17:44:56;;;;;;;7.85;5.78;;;;;;;-145.68;100.00;72484.53;10462845;28;20246;-75
2023/10/19 17:49:56;;;;;;;6.53;5.85;;;;;;;-145.68;100.00;72490.53;10462721;28;20594;-75
2023/10/19 17:54:56;;;;;;;7.83;5.87;;;;;;;-145.68;100.00;72480.53;10464251;28;20203;-75
2023/10/19 17:59:57;;;;;;;7.88;6.32;;;;;;;-145.68;100.00;72480.53;10462819;28;20226;-75
2023/10/19 18:04:57;;;;;;;10.00;6.87;;;;;;;-145.68;100.00;72460.56;10464475;28;20616;-75
2023/10/19 18:09:58;;;;;;;6.80;5.95;;;;;;;-145.68;100.00;72454.56;10462582;28;20195;-74
2023/10/19 18:14:59;;;;;;;9.50;6.87;;;;;;;-145.68;100.00;72458.56;10463842;28;20603;-74
2023/10/19 18:20:00;;;;;;;9.13;7.57;;;;;;;-145.68;100.00;72450.56;10464204;28;20187;-74
2023/10/19 18:25:00;;;;;;;11.83;8.47;;;;;;;-145.68;100.00;72456.56;10463062;28;20223;-73
2023/10/19 18:30:01;;;;;;;8.13;6.53;;;;;;;-145.68;100.00;72438.56;10467212;28;20222;-75
2023/10/19 18:35:01;;;;;;;7.70;6.47;;;;;;;-145.68;100.00;72444.56;10470445;28;20246;-74
2023/10/19 18:40:02;;;;;;;11.80;7.38;;;;;;;-145.68;100.00;72472.53;10471105;28;20198;-74
2023/10/19 18:45:04;;;;;;;8.52;6.50;;;;;;;-145.68;100.00;72440.56;10471961;28;20184;-74
2023/10/19 18:50:08;;;;;;;9.10;7.50;;;;;;;-145.68;100.00;72476.53;10465142;28;20207;-74
2023/10/19 18:55:14;;;;;;;8.15;7.28;;;;;;;-145.68;100.00;72466.56;10470895;28;20785;-74
2023/10/19 19:00:14;;;;;;;9.23;8.23;;;;;;;-145.68;100.00;72480.53;10471175;28;20188;-74
2023/10/19 19:05:15;;;;;;;8.50;7.60;;;;;;;-145.68;100.00;72476.53;10470815;28;20240;-74
2023/10/19 19:10:16;;;;;;;8.45;7.57;;;;;;;-145.68;100.00;72450.56;10470606;28;20216;-74
2023/10/19 19:15:16;;;;;;;7.83;6.90;;;;;;;-145.68;100.00;72448.56;10470672;28;20208;-74
2023/10/19 19:20:21;;;;;;;10.98;8.48;;;;;;;-145.68;100.00;72440.56;10465666;28;20199;-75
2023/10/19 19:25:21;;;;;;;10.33;7.40;;;;;;;-145.68;100.00;72416.59;10465483;28;20206;-74
2023/10/19 19:30:22;;;;;;;8.02;6.32;;;;;;;-145.68;100.00;72420.59;10465215;28;20191;-74
2023/10/19 19:35:22;;;;;;;10.90;8.90;;;;;;;-145.68;100.00;72420.59;10461980;28;20219;-74
2023/10/19 19:40:24;;;;;;;11.07;8.57;;;;;;;-145.68;100.00;72424.59;10457792;28;20192;-74
2023/10/19 19:45:25;;;;;;;9.95;7.38;;;;;;;-145.68;100.00;72408.59;10470188;28;20241;-74
2023/10/19 19:50:25;;;;;;;9.55;6.82;;;;;;;-145.68;100.00;72404.59;10468306;28;20242;-74
2023/10/19 19:55:27;;;;;;;9.97;8.23;;;;;;;-145.68;100.00;72414.59;10469262;28;20647;-74
2023/10/19 20:00:30;;;;;;;14.25;8.65;;;;;;;-145.68;100.00;72404.59;10468556;28;20195;-74
2023/10/19 20:05:32;;;;;;;12.03;9.67;;;;;;;-145.68;100.00;72418.59;10468331;28;20187;-74
2023/10/19 20:10:38;;;;;;;17.30;12.80;;;;;;;-145.68;100.00;72440.56;10468326;28;20196;-74
2023/10/19 20:15:40;;;;;;;19.13;13.40;;;;;;;-145.68;100.00;72440.56;10458880;28;20220;-74
2023/10/19 20:20:41;;;;;;;19.87;14.30;;;;;;;-145.68;100.00;72448.56;10467160;28;20257;-74
2023/10/19 20:25:41;;;;;;;20.93;12.03;;;;;;;-145.68;100.00;72454.56;10468644;28;20217;-74
2023/10/19 20:30:42;;;;;;;22.73;13.77;;;;;;;-145.68;100.00;72472.53;10466035;28;20245;-73
2023/10/19 20:35:44;;;;;;;25.57;15.30;;;;;;;-145.68;100.00;72490.53;10467272;28;20305;-73
2023/10/19 20:40:44;;;;;;;24.73;15.67;;;;;;;-145.68;100.00;72498.53;10467109;28;20199;-73
2023/10/19 20:45:48;;;;;;;27.20;19.67;;;;;;;-145.68;100.00;72508.50;10467342;28;20192;-73
2023/10/19 20:50:48;;;;;;;29.57;20.37;;;;;;;-145.68;100.00;72516.50;10465516;28;20754;-74
2023/10/19 20:55:49;;;;;;;29.73;19.97;;;;;;;-145.68;100.00;72510.50;10466221;28;20223;-73
2023/10/19 21:00:49;;;;;;;32.03;21.03;;;;;;;-145.68;100.00;72500.53;10466215;28;20195;-74
2023/10/19 21:05:49;;;;;;;29.37;19.03;;;;;;;-145.68;100.00;72488.53;10467016;28;20559;-74
2023/10/19 21:10:50;;;;;;;32.17;20.87;;;;;;;-145.68;100.00;72482.53;10467437;28;20206;-74
2023/10/19 21:15:51;;;;;;;29.90;20.33;;;;;;;-145.68;100.00;72460.56;10467068;28;20219;-74
2023/10/19 21:20:56;;;;;;;31.30;19.40;;;;;;;-145.68;100.00;72480.53;10466239;28;20595;-74
2023/10/19 21:25:58;;;;;;;31.47;19.80;;;;;;;-145.68;100.00;72498.53;10467064;28;20759;-74
2023/10/19 21:30:59;;;;;;;29.47;19.80;;;;;;;-145.68;100.00;72480.53;10466037;28;20537;-73
2023/10/19 21:36:00;;;;;;;26.90;18.80;;;;;;;-145.68;100.00;72456.56;10466603;28;20265;-73
2023/10/19 21:41:01;;;;;;;24.00;17.47;;;;;;;-145.68;100.00;72444.56;10466117;28;20266;-75
2023/10/19 21:46:02;;;;;;;23.93;16.80;;;;;;;-145.68;100.00;72434.59;10466018;28;20187;-75
2023/10/19 21:51:03;;;;;;;22.27;16.50;;;;;;;-145.68;100.00;72432.59;10465901;28;20214;-74
2023/10/19 21:56:03;;;;;;;20.97;14.90;;;;;;;-145.68;100.00;72424.59;10464833;28;20211;-74
2023/10/19 22:01:06;;;;;;;23.23;15.87;;;;;;;-145.68;100.00;72424.59;10465362;28;20192;-73
2023/10/19 22:06:07;;;;;;;23.07;14.60;;;;;;;-145.68;100.00;72412.59;10465815;28;20204;-73
2023/10/19 22:11:08;;;;;;;18.13;13.57;;;;;;;-145.68;100.00;72386.63;10465335;28;20184;-73
2023/10/19 22:16:09;;;;;;;18.30;14.40;;;;;;;-145.68;100.00;72386.63;10465460;28;20757;-73
2023/10/19 22:21:09;;;;;;;17.47;13.70;;;;;;;-145.68;100.00;72394.63;10465048;28;20263;-73
2023/10/19 22:26:10;;;;;;;16.13;12.17;;;;;;;-145.68;100.00;72388.63;10465861;28;20187;-73
2023/10/19 22:31:10;;;;;;;15.17;11.83;;;;;;;-145.68;100.00;72364.63;10464565;28;20188;-74
2023/10/19 22:36:12;;;;;;;16.03;11.23;;;;;;;-145.68;100.00;72358.66;10465429;28;20215;-73
2023/10/19 22:41:12;;;;;;;15.23;12.13;;;;;;;-145.68;100.00;72362.66;10464919;28;20269;-73
2023/10/19 22:46:13;;;;;;;14.93;12.02;;;;;;;-145.68;100.00;72352.66;10464864;28;20234;-73
2023/10/19 22:51:13;;;;;;;15.32;12.73;;;;;;;-145.68;100.00;72340.66;10464539;28;20574;-74